Time;durP1;ratioP1;P1;durP2;ratioP2;P2;SDS_P1;SDS_P2;PMS_P1;PMS_P2;Temp;Humidity;BMP_temperature;BMP_pressure;BME280_temperature;BME280_humidity;BME280_pressure;Samples;Min_cycle;Max_cycle;Signal;HPM_P1;HPM_P2
2022/04/01 00:01:48;;;;;;;7.50;6.90;;;6.20;96.80;;;;;;5057906;28;20211;-34
2022/04/01 00:04:17;;;;;;;8.43;7.63;;;6.20;96.60;;;;;;5055933;28;20221;-34
2022/04/01 00:06:44;;;;;;;8.50;7.60;;;6.20;96.80;;;;;;5065308;28;20199;-33
2022/04/01 00:09:11;;;;;;;8.03;7.30;;;6.20;96.70;;;;;;5059503;28;20681;-33
2022/04/01 00:11:38;;;;;;;7.63;6.93;;;6.30;96.60;;;;;;5061491;28;20212;-32
2022/04/01 00:14:10;;;;;;;8.90;8.00;;;6.30;96.60;;;;;;5057875;28;20232;-34
2022/04/01 00:16:42;;;;;;;9.27;8.37;;;6.20;97.20;;;;;;5052689;28;20187;-33
2022/04/01 00:19:12;;;;;;;8.90;8.10;;;6.20;97.10;;;;;;5058960;28;20251;-33
2022/04/01 00:21:42;;;;;;;9.20;8.30;;;6.10;97.30;;;;;;5062302;28;20200;-33
2022/04/01 00:24:12;;;;;;;9.00;8.20;;;5.90;97.90;;;;;;5060139;28;20207;-33
2022/04/01 00:26:45;;;;;;;8.10;7.40;;;5.90;97.30;;;;;;5057755;28;20214;-33
2022/04/01 00:29:16;;;;;;;8.50;7.70;;;5.90;96.90;;;;;;5055731;28;20212;-32
2022/04/01 00:31:59;;;;;;;9.33;8.43;;;5.90;96.90;;;;;;5059866;28;20200;-33
2022/04/01 00:34:30;;;;;;;7.73;7.03;;;6.00;97.30;;;;;;5053943;28;20223;-33
2022/04/01 00:37:03;;;;;;;8.30;7.50;;;5.90;96.80;;;;;;5057303;28;20548;-33
2022/04/01 00:39:32;;;;;;;7.70;7.00;;;6.00;96.80;;;;;;5054743;28;20228;-33
2022/04/01 00:42:04;;;;;;;7.50;6.90;;;5.90;96.90;;;;;;5063927;28;20545;-33
2022/04/01 00:44:36;;;;;;;7.10;6.50;;;5.90;96.90;;;;;;5055226;28;20281;-33
2022/04/01 00:47:06;;;;;;;7.60;6.90;;;5.90;96.70;;;;;;5062378;28;20207;-33
2022/04/01 00:49:39;;;;;;;7.83;7.13;;;5.90;96.80;;;;;;5069616;28;20697;-33
2022/04/01 00:52:09;;;;;;;7.83;7.13;;;5.90;97.60;;;;;;5066270;28;20253;-33
2022/04/01 00:54:37;;;;;;;8.80;8.03;;;5.80;97.00;;;;;;5062160;28;20289;-33
2022/04/01 00:57:18;;;;;;;7.93;7.23;;;5.80;97.00;;;;;;5068197;28;20627;-33
2022/04/01 00:59:50;;;;;;;7.73;7.03;;;5.70;97.30;;;;;;5067904;28;20500;-33
2022/04/01 01:02:17;;;;;;;8.47;7.73;;;5.70;97.00;;;;;;5059360;28;20208;-32
2022/04/01 01:04:47;;;;;;;8.37;7.57;;;5.70;97.10;;;;;;5078883;28;20670;-40
2022/04/01 01:07:15;;;;;;;8.47;7.67;;;5.70;97.00;;;;;;5064170;28;20199;-40
2022/04/01 01:09:43;;;;;;;9.70;8.80;;;5.70;97.20;;;;;;5061544;28;20622;-40
2022/04/01 01:12:13;;;;;;;8.70;7.90;;;5.60;97.60;;;;;;5061189;28;20669;-40
2022/04/01 01:14:44;;;;;;;9.00;8.10;;;5.60;97.30;;;;;;5067601;28;20228;-40
2022/04/01 01:17:15;;;;;;;8.90;8.10;;;5.60;97.00;;;;;;5066415;28;20203;-40
2022/04/01 01:19:45;;;;;;;8.70;7.90;;;5.60;97.00;;;;;;5067751;28;20804;-40
2022/04/01 01:22:17;;;;;;;9.30;8.40;;;5.60;96.90;;;;;;5063102;28;20258;-40
2022/04/01 01:24:46;;;;;;;9.00;8.10;;;5.60;96.90;;;;;;5067411;28;20199;-40
2022/04/01 01:27:14;;;;;;;9.53;8.63;;;5.60;97.10;;;;;;5064707;28;20217;-40
2022/04/01 01:29:47;;;;;;;10.60;9.50;;;5.60;97.00;;;;;;5058560;28;20212;-40
2022/04/01 01:32:19;;;;;;;9.87;8.87;;;5.60;97.00;;;;;;5062148;28;20211;-40
2022/04/01 01:34:46;;;;;;;9.80;8.90;;;5.60;96.90;;;;;;5049260;28;20236;-40
2022/04/01 01:37:15;;;;;;;10.33;9.33;;;5.60;96.80;;;;;;5050425;28;20628;-40
2022/04/01 01:39:45;;;;;;;10.40;9.40;;;5.50;96.90;;;;;;5057010;28;20204;-40
2022/04/01 01:42:15;;;;;;;10.93;9.83;;;5.50;97.30;;;;;;5051458;28;20196;-40
2022/04/01 01:44:45;;;;;;;10.83;9.73;;;5.40;97.20;;;;;;5055774;28;20210;-33
2022/04/01 01:47:13;;;;;;;11.53;9.97;;;5.40;97.00;;;;;;5067643;28;20276;-33
2022/04/01 01:54:42;;;;;;;11.10;10.03;;;5.40;97.10;;;;;;5055410;28;20204;-33
2022/04/01 01:55:13;;;;;;;10.90;9.80;;;5.30;97.00;;;;;;5061065;28;20637;-34
2022/04/01 01:57:43;;;;;;;10.73;9.63;;;5.40;96.90;;;;;;5050397;28;20196;-33
2022/04/01 02:00:11;;;;;;;10.53;9.47;;;5.30;97.00;;;;;;5056336;28;20208;-33
2022/04/01 02:02:39;;;;;;;9.70;8.67;;;5.30;96.80;;;;;;5062366;28;20211;-34
2022/04/01 02:05:07;;;;;;;9.47;8.57;;;5.30;96.80;;;;;;5061775;28;20247;-33
2022/04/01 02:07:37;;;;;;;9.00;8.10;;;5.30;96.90;;;;;;5068454;28;20265;-33
2022/04/01 02:10:05;;;;;;;7.97;7.27;;;5.30;97.00;;;;;;5060369;28;20204;-33
2022/04/01 02:12:35;;;;;;;8.63;7.73;;;5.30;96.80;;;;;;5069075;28;20294;-33
2022/04/01 02:15:03;;;;;;;11.33;6.67;;;5.30;96.90;;;;;;5066287;28;20327;-34
2022/04/01 02:17:31;;;;;;;7.40;6.70;;;5.20;96.90;;;;;;5065075;28;20570;-33
2022/04/01 02:20:05;;;;;;;6.90;6.27;;;5.20;97.00;;;;;;5052430;28;20208;-33
2022/04/01 02:22:32;;;;;;;6.87;6.17;;;5.10;97.10;;;;;;5065971;28;20198;-33
2022/04/01 02:25:04;;;;;;;6.47;5.67;;;5.10;96.70;;;;;;5062479;28;20207;-33
2022/04/01 02:27:34;;;;;;;5.83;5.23;;;5.10;96.80;;;;;;5062738;28;20236;-33
2022/04/01 02:30:10;;;;;;;5.67;5.17;;;5.10;96.90;;;;;;5063903;28;20200;-33
2022/04/01 02:32:41;;;;;;;5.70;5.13;;;5.00;96.70;;;;;;5060918;28;20226;-33
2022/04/01 02:35:12;;;;;;;8.83;4.90;;;5.00;96.80;;;;;;5059476;28;20230;-33
2022/04/01 02:37:42;;;;;;;4.50;4.10;;;5.00;97.20;;;;;;5068404;28;20776;-33
2022/04/01 02:40:12;;;;;;;4.90;4.17;;;4.90;97.10;;;;;;5062512;28;20208;-33
2022/04/01 02:42:40;;;;;;;4.50;3.83;;;4.90;96.90;;;;;;5057747;28;20245;-33
2022/04/01 02:45:13;;;;;;;3.60;3.30;;;4.90;96.90;;;;;;5055164;28;20265;-40
2022/04/01 02:47:45;;;;;;;3.93;3.53;;;4.90;96.90;;;;;;5061896;28;20200;-39
2022/04/01 02:50:13;;;;;;;4.70;3.83;;;4.80;97.00;;;;;;5065365;28;20708;-40
2022/04/01 02:52:40;;;;;;;4.67;3.43;;;4.80;96.90;;;;;;5056919;28;20203;-40
2022/04/01 02:55:08;;;;;;;3.60;3.30;;;4.80;96.80;;;;;;5054728;28;20730;-39
2022/04/01 02:57:44;;;;;;;4.93;3.50;;;4.80;96.80;;;;;;5053601;28;20669;-40
2022/04/01 03:00:21;;;;;;;3.57;3.23;;;4.80;96.70;;;;;;5050542;28;20211;-40
2022/04/01 03:02:51;;;;;;;3.30;3.00;;;4.70;97.10;;;;;;5055248;28;20230;-40
2022/04/01 03:05:21;;;;;;;2.93;2.63;;;4.70;97.20;;;;;;5061615;28;20593;-40
2022/04/01 03:07:48;;;;;;;3.20;3.00;;;4.70;96.80;;;;;;5065312;28;20835;-40
2022/04/01 03:10:17;;;;;;;5.80;2.97;;;4.70;96.80;;;;;;5060477;28;20289;-34
2022/04/01 03:12:47;;;;;;;3.00;2.70;;;4.70;96.90;;;;;;5065025;28;20276;-33
2022/04/01 03:15:19;;;;;;;3.43;3.00;;;4.70;96.70;;;;;;5050993;28;20228;-33
2022/04/01 03:17:46;;;;;;;3.37;2.90;;;4.60;96.70;;;;;;5061770;28;20677;-34
2022/04/01 03:20:16;;;;;;;4.60;3.27;;;4.60;96.90;;;;;;5061988;28;20234;-33
2022/04/01 03:22:44;;;;;;;3.17;2.60;;;4.60;96.80;;;;;;5067100;28;20207;-34
2022/04/01 03:25:15;;;;;;;2.73;2.53;;;4.60;96.80;;;;;;5054634;28;20254;-33
2022/04/01 03:27:48;;;;;;;3.57;3.27;;;4.60;96.90;;;;;;5061838;28;20776;-33
2022/04/01 03:30:18;;;;;;;3.27;2.90;;;4.60;97.00;;;;;;5053037;28;20213;-33
2022/04/01 03:32:47;;;;;;;2.87;2.60;;;4.60;97.00;;;;;;5064753;28;20211;-33
2022/04/01 03:35:17;;;;;;;2.77;2.53;;;4.60;96.80;;;;;;5061220;28;20330;-33
2022/04/01 03:37:49;;;;;;;3.43;2.93;;;4.60;96.60;;;;;;5059995;28;20203;-34
2022/04/01 03:40:17;;;;;;;3.73;2.80;;;4.60;96.90;;;;;;5063909;28;20246;-33
2022/04/01 03:42:50;;;;;;;4.53;2.77;;;4.60;96.70;;;;;;5067680;28;20278;-41
2022/04/01 03:45:17;;;;;;;3.57;3.27;;;4.50;97.00;;;;;;5061295;28;20324;-40
2022/04/01 03:47:58;;;;;;;4.40;2.70;;;4.50;97.10;;;;;;5065290;28;20579;-40
2022/04/01 03:50:32;;;;;;;4.30;2.70;;;4.50;97.30;;;;;;5056058;28;20204;-40
2022/04/01 03:53:08;;;;;;;3.80;2.70;;;4.40;97.00;;;;;;5051559;28;20726;-40
2022/04/01 03:55:37;;;;;;;2.93;2.73;;;4.40;97.10;;;;;;5063256;28;20658;-40
2022/04/01 03:58:13;;;;;;;3.30;3.00;;;4.40;97.20;;;;;;5067666;28;20530;-40
2022/04/01 04:00:43;;;;;;;3.50;3.20;;;4.40;97.40;;;;;;5062685;28;20811;-40
2022/04/01 04:03:14;;;;;;;3.30;2.90;;;4.40;97.10;;;;;;5064485;28;20234;-40
2022/04/01 04:05:49;;;;;;;5.20;2.90;;;4.30;97.10;;;;;;5065122;28;20231;-40
2022/04/01 04:08:20;;;;;;;3.03;2.53;;;4.30;97.30;;;;;;5063060;28;20207;-40
2022/04/01 04:10:53;;;;;;;2.83;2.63;;;4.30;97.10;;;;;;5060115;28;20214;-40
2022/04/01 04:13:25;;;;;;;2.90;2.70;;;4.30;97.00;;;;;;5063309;28;20226;-40
2022/04/01 04:16:04;;;;;;;3.70;2.97;;;4.20;97.40;;;;;;5062697;28;20728;-40
2022/04/01 04:18:42;;;;;;;3.10;2.70;;;4.20;97.30;;;;;;5058312;28;20278;-40
2022/04/01 04:21:30;;;;;;;3.53;2.90;;;4.10;98.00;;;;;;5064501;28;20686;-33
2022/04/01 04:24:01;;;;;;;2.93;2.53;;;4.10;97.60;;;;;;5067762;28;20202;-33
2022/04/01 04:26:37;;;;;;;5.00;2.90;;;4.10;97.40;;;;;;5061392;28;20212;-33
2022/04/01 04:29:16;;;;;;;3.30;2.93;;;4.10;97.40;;;;;;5051070;28;20212;-33
2022/04/01 04:32:03;;;;;;;3.60;3.30;;;4.10;97.70;;;;;;5065566;28;20752;-33
2022/04/01 04:34:38;;;;;;;2.90;2.60;;;4.10;97.60;;;;;;5069081;28;20573;-33
2022/04/01 04:37:09;;;;;;;6.77;2.90;;;4.10;97.40;;;;;;5051515;28;20255;-33
2022/04/01 04:39:38;;;;;;;3.60;3.00;;;4.10;97.10;;;;;;5057629;28;20686;-34
2022/04/01 04:42:09;;;;;;;2.90;2.60;;;4.10;97.80;;;;;;5056232;28;20216;-33
2022/04/01 04:44:37;;;;;;;7.07;3.00;;;4.10;97.60;;;;;;5062323;28;20199;-34
2022/04/01 04:47:05;;;;;;;3.10;2.80;;;4.10;97.00;;;;;;5070863;28;20717;-33
2022/04/01 04:49:33;;;;;;;2.90;2.60;;;4.10;97.30;;;;;;5065091;28;20664;-33
2022/04/01 04:52:03;;;;;;;3.70;2.70;;;4.10;97.20;;;;;;5070357;28;20294;-34
2022/04/01 04:54:31;;;;;;;3.10;2.80;;;4.10;97.10;;;;;;5067456;28;20239;-39
2022/04/01 04:57:04;;;;;;;3.33;2.80;;;4.00;97.50;;;;;;5056716;28;20290;-39
2022/04/01 04:59:35;;;;;;;3.17;2.87;;;4.00;97.20;;;;;;5059350;28;20787;-39
2022/04/01 05:02:10;;;;;;;3.57;2.70;;;4.00;97.90;;;;;;5066060;28;20623;-34
2022/04/01 05:05:07;;;;;;;3.10;2.70;;;4.00;97.50;;;;;;5062549;28;20207;-33
2022/04/01 05:07:39;;;;;;;3.40;3.10;;;4.00;97.60;;;;;;5063390;28;20205;-34
2022/04/01 05:10:16;;;;;;;3.67;3.10;;;4.00;97.50;;;;;;5052735;28;20270;-34
2022/04/01 05:12:59;;;;;;;6.00;3.07;;;4.00;97.40;;;;;;5059779;28;20743;-33
2022/04/01 05:15:36;;;;;;;4.30;3.00;;;4.00;97.60;;;;;;5059075;28;20219;-33
2022/04/01 05:18:38;;;;;;;3.70;2.60;;;4.00;97.60;;;;;;5057359;28;21333;-33
2022/04/01 05:21:18;;;;;;;4.37;3.23;;;4.00;97.50;;;;;;5048414;28;20232;-33
2022/04/01 05:23:54;;;;;;;6.97;3.30;;;3.90;97.80;;;;;;5068783;28;20211;-33
2022/04/01 05:26:38;;;;;;;3.27;2.70;;;3.90;97.70;;;;;;5064129;28;20551;-34
2022/04/01 05:29:13;;;;;;;3.50;3.20;;;3.90;97.80;;;;;;5061598;28;20648;-33
2022/04/01 05:31:52;;;;;;;3.50;2.80;;;3.90;97.90;;;;;;5059186;28;20206;-33
2022/04/01 05:34:34;;;;;;;5.83;3.27;;;3.90;97.60;;;;;;5064117;28;20560;-33
2022/04/01 05:37:02;;;;;;;6.30;3.80;;;3.80;97.80;;;;;;5068189;28;20204;-33
2022/04/01 05:39:32;;;;;;;4.37;3.10;;;3.70;98.30;;;;;;5067467;28;20257;-33
2022/04/01 05:42:01;;;;;;;3.40;3.10;;;3.80;97.50;;;;;;5064647;28;20987;-33
2022/04/01 05:44:30;;;;;;;3.40;3.07;;;3.90;97.40;;;;;;5061378;28;20249;-33
2022/04/01 05:46:58;;;;;;;4.43;3.53;;;3.80;97.50;;;;;;5065282;28;20637;-33
2022/04/01 05:49:28;;;;;;;5.03;2.97;;;3.80;97.60;;;;;;5059806;28;20218;-33
2022/04/01 05:52:03;;;;;;;4.97;3.20;;;3.80;97.60;;;;;;5062762;28;20316;-38
2022/04/01 05:54:34;;;;;;;3.73;3.00;;;3.90;97.60;;;;;;5047786;28;20285;-38
2022/04/01 05:57:03;;;;;;;4.03;3.40;;;3.90;97.80;;;;;;5053226;28;20234;-39
2022/04/01 05:59:32;;;;;;;3.40;3.10;;;3.90;97.80;;;;;;5057278;28;20295;-39
2022/04/01 06:02:24;;;;;;;5.30;3.20;;;3.90;97.50;;;;;;5054187;28;20208;-38
2022/04/01 06:05:15;;;;;;;5.57;3.60;;;3.80;98.00;;;;;;5051943;28;20697;-39
2022/04/01 06:08:13;;;;;;;3.53;3.23;;;3.70;98.70;;;;;;5060656;28;20191;-38
2022/04/01 06:10:58;;;;;;;3.90;3.30;;;3.70;98.40;;;;;;5053523;28;20196;-39
2022/04/01 06:13:59;;;;;;;4.47;4.07;;;3.70;98.60;;;;;;5057019;28;20726;-38
2022/04/01 06:16:52;;;;;;;4.10;3.70;;;3.60;98.80;;;;;;5052608;28;20250;-38
2022/04/01 06:19:23;;;;;;;4.87;3.67;;;3.60;98.90;;;;;;5058019;28;20522;-38
2022/04/01 06:22:14;;;;;;;4.30;3.83;;;3.60;98.10;;;;;;5055175;28;20281;-38
2022/04/01 06:25:03;;;;;;;4.63;4.17;;;3.60;98.70;;;;;;5050367;28;20282;-38
2022/04/01 06:27:41;;;;;;;5.73;4.87;;;3.60;98.60;;;;;;5054422;28;20251;-38
2022/04/01 06:30:13;;;;;;;4.53;3.97;;;3.50;99.20;;;;;;5048733;28;20206;-38
2022/04/01 06:32:48;;;;;;;6.20;4.80;;;3.50;98.50;;;;;;5062663;28;20200;-38
2022/04/01 06:35:35;;;;;;;4.87;4.30;;;3.50;98.80;;;;;;5068241;28;20227;-38
2022/04/01 06:38:05;;;;;;;5.17;4.40;;;3.40;98.50;;;;;;5054409;28;20195;-38
2022/04/01 06:40:55;;;;;;;7.33;4.97;;;3.40;98.50;;;;;;5059519;28;20191;-38
2022/04/01 06:43:23;;;;;;;5.20;3.97;;;3.50;98.50;;;;;;5058434;28;20705;-38
2022/04/01 06:45:50;;;;;;;8.20;4.83;;;3.50;98.10;;;;;;5063717;28;20298;-38
2022/04/01 06:48:19;;;;;;;7.00;4.37;;;3.40;99.00;;;;;;5059688;28;20200;-38
2022/04/01 06:50:49;;;;;;;6.47;4.77;;;3.40;98.40;;;;;;5060107;28;20785;-38
2022/04/01 06:53:20;;;;;;;9.17;5.20;;;3.40;98.20;;;;;;5056636;28;20212;-38
2022/04/01 06:55:49;;;;;;;7.10;5.30;;;3.40;99.00;;;;;;5061603;28;20211;-38
2022/04/01 06:58:20;;;;;;;8.57;4.80;;;3.30;99.50;;;;;;5062005;28;20285;-38
2022/04/01 07:00:47;;;;;;;6.23;4.40;;;3.30;99.10;;;;;;5054855;28;20701;-37
2022/04/01 07:03:18;;;;;;;5.77;4.57;;;3.30;98.60;;;;;;5050790;28;20527;-37
2022/04/01 07:05:45;;;;;;;5.17;4.67;;;3.30;98.50;;;;;;5056961;28;20294;-37
2022/04/01 07:08:17;;;;;;;6.40;4.83;;;3.30;98.80;;;;;;5063212;28;20199;-38
2022/04/01 07:10:48;;;;;;;6.97;4.73;;;3.40;99.00;;;;;;5053188;28;20311;-37
2022/04/01 07:13:20;;;;;;;6.07;5.07;;;3.30;98.80;;;;;;5050175;28;20212;-38
2022/04/01 07:15:50;;;;;;;5.20;4.70;;;3.30;98.80;;;;;;5050208;28;20219;-38
2022/04/01 07:18:18;;;;;;;6.30;5.23;;;3.40;98.50;;;;;;5066420;28;20215;-38
2022/04/01 07:20:48;;;;;;;5.60;5.00;;;3.30;98.70;;;;;;5067178;28;20285;-38
2022/04/01 07:23:18;;;;;;;6.67;5.03;;;3.40;98.60;;;;;;5066137;28;20211;-38
2022/04/01 07:25:45;;;;;;;5.07;4.57;;;3.40;98.50;;;;;;5055153;28;20563;-38
2022/04/01 07:28:19;;;;;;;6.93;5.43;;;3.40;98.80;;;;;;5081162;28;20366;-38
2022/04/01 07:30:46;;;;;;;5.87;5.20;;;3.40;98.50;;;;;;5052922;28;20273;-38
2022/04/01 07:33:19;;;;;;;6.67;5.50;;;3.40;98.60;;;;;;5066307;28;20337;-39
2022/04/01 07:35:54;;;;;;;6.67;5.13;;;3.50;98.50;;;;;;5051860;28;20290;-39
2022/04/01 07:38:26;;;;;;;5.57;4.77;;;3.50;98.50;;;;;;5066283;28;20681;-39
2022/04/01 07:40:53;;;;;;;7.03;5.33;;;3.50;98.50;;;;;;5066335;28;20231;-38
2022/04/01 07:43:21;;;;;;;9.00;5.57;;;3.50;98.70;;;;;;5065815;28;20207;-38
2022/04/01 07:45:50;;;;;;;14.27;5.87;;;3.50;98.60;;;;;;5056038;28;21521;-39
2022/04/01 07:48:17;;;;;;;10.13;5.63;;;3.40;98.50;;;;;;5055800;28;20299;-39
2022/04/01 07:50:47;;;;;;;9.37;7.07;;;3.40;99.00;;;;;;5063791;28;20214;-39
2022/04/01 07:53:20;;;;;;;8.97;6.13;;;3.30;99.10;;;;;;5064157;28;20338;-39
2022/04/01 07:55:49;;;;;;;6.50;5.23;;;3.30;99.10;;;;;;5060205;28;20350;-39
2022/04/01 07:58:18;;;;;;;6.57;5.50;;;3.40;98.60;;;;;;5058982;28;20196;-40
2022/04/01 08:00:55;;;;;;;10.53;6.13;;;3.40;98.70;;;;;;5061896;28;20191;-39
2022/04/01 08:03:22;;;;;;;7.17;6.47;;;3.40;98.70;;;;;;5067081;28;20773;-39
2022/04/01 08:05:51;;;;;;;7.33;6.10;;;3.40;98.60;;;;;;5081653;28;20200;-39
2022/04/01 08:08:23;;;;;;;6.63;5.63;;;3.40;98.60;;;;;;5054106;28;20249;-39
2022/04/01 08:10:54;;;;;;;7.17;5.43;;;3.40;98.90;;;;;;5066069;28;20207;-39
2022/04/01 08:13:24;;;;;;;11.17;5.73;;;3.40;98.60;;;;;;5065217;28;20202;-39
2022/04/01 08:15:56;;;;;;;7.77;5.90;;;3.30;99.20;;;;;;5058106;28;20347;-39
2022/04/01 08:18:24;;;;;;;6.43;5.70;;;3.20;99.40;;;;;;5061017;28;20681;-39
2022/04/01 08:20:51;;;;;;;6.77;5.40;;;3.30;98.80;;;;;;5065009;28;20207;-39
2022/04/01 08:23:22;;;;;;;6.83;5.20;;;3.30;98.90;;;;;;5066107;28;20597;-39
2022/04/01 08:25:49;;;;;;;5.90;5.40;;;3.40;98.80;;;;;;5066896;28;20203;-39
2022/04/01 08:28:17;;;;;;;6.20;5.40;;;3.40;98.60;;;;;;5057303;28;20309;-39
2022/04/01 08:30:46;;;;;;;7.07;4.93;;;3.40;98.70;;;;;;5044973;28;20204;-39
2022/04/01 08:33:17;;;;;;;5.97;5.07;;;3.40;98.50;;;;;;5057153;28;20196;-39
2022/04/01 08:35:52;;;;;;;6.13;4.80;;;3.40;98.70;;;;;;5057968;28;20729;-39
2022/04/01 08:38:20;;;;;;;5.90;5.03;;;3.40;98.60;;;;;;5051433;28;20208;-39
2022/04/01 08:40:47;;;;;;;9.30;5.57;;;3.30;99.00;;;;;;5049201;28;20657;-39
2022/04/01 08:43:33;;;;;;;11.57;5.80;;;3.40;98.70;;;;;;5065538;28;20749;-39
2022/04/01 08:46:04;;;;;;;8.20;5.00;;;3.40;98.80;;;;;;5046117;28;20307;-39
2022/04/01 08:48:32;;;;;;;5.93;5.10;;;3.40;98.50;;;;;;5052544;28;20282;-39
2022/04/01 08:51:00;;;;;;;6.43;4.40;;;3.40;98.60;;;;;;5057676;28;20298;-39
2022/04/01 08:53:29;;;;;;;4.97;4.40;;;3.40;98.60;;;;;;5062241;28;20236;-39
2022/04/01 08:55:57;;;;;;;6.97;4.97;;;3.40;98.40;;;;;;5047414;28;20220;-40
2022/04/01 08:58:26;;;;;;;7.70;5.23;;;3.40;98.60;;;;;;5061930;28;20199;-39
2022/04/01 09:00:56;;;;;;;6.10;4.93;;;3.40;98.50;;;;;;5063049;28;20595;-39
2022/04/01 09:03:24;;;;;;;11.50;5.30;;;3.40;98.50;;;;;;5067873;28;20282;-39
2022/04/01 09:05:56;;;;;;;7.57;4.67;;;3.40;98.40;;;;;;5070464;28;20219;-39
2022/04/01 09:08:30;;;;;;;14.53;5.30;;;3.40;98.70;;;;;;5065941;28;20238;-39
2022/04/01 09:11:20;;;;;;;6.80;5.00;;;3.40;98.80;;;;;;5062152;28;20199;-40
2022/04/01 09:13:52;;;;;;;7.13;5.00;;;3.40;98.80;;;;;;5061040;28;20222;-39
2022/04/01 09:16:39;;;;;;;5.77;4.40;;;3.40;98.80;;;;;;5077078;28;20637;-40
2022/04/01 09:19:09;;;;;;;8.93;4.43;;;3.40;98.90;;;;;;5063557;28;20191;-40
2022/04/01 09:21:44;;;;;;;5.77;4.70;;;3.40;98.60;;;;;;5053581;28;20403;-40
2022/04/01 09:24:13;;;;;;;7.13;4.70;;;3.40;98.80;;;;;;5067697;28;20216;-40
2022/04/01 09:26:41;;;;;;;7.73;4.53;;;3.50;98.60;;;;;;5070002;28;20702;-40
2022/04/01 09:29:10;;;;;;;7.00;4.73;;;3.50;98.50;;;;;;5063254;28;20215;-40
2022/04/01 09:31:40;;;;;;;7.50;4.40;;;3.50;98.40;;;;;;5068316;28;20311;-41
2022/04/01 09:34:17;;;;;;;5.63;4.20;;;3.50;98.80;;;;;;5053414;28;20215;-40
2022/04/01 09:36:44;;;;;;;8.30;3.87;;;3.40;98.80;;;;;;5059469;28;20575;-40
2022/04/01 09:39:19;;;;;;;5.00;3.63;;;3.50;98.50;;;;;;5062689;28;20307;-41
2022/04/01 09:41:55;;;;;;;5.80;4.60;;;3.50;98.50;;;;;;5050935;28;20203;-40
2022/04/01 09:44:26;;;;;;;5.10;4.00;;;3.40;98.60;;;;;;5049503;28;20200;-41
2022/04/01 09:46:56;;;;;;;5.07;4.27;;;3.50;98.50;;;;;;5064066;28;20203;-41
2022/04/01 09:49:42;;;;;;;5.40;4.00;;;3.50;98.40;;;;;;5061457;28;20623;-41
2022/04/01 09:52:11;;;;;;;4.90;4.00;;;3.50;98.60;;;;;;5066194;28;20219;-41
2022/04/01 09:54:57;;;;;;;4.03;3.63;;;3.50;98.60;;;;;;5061852;28;20290;-41
2022/04/01 09:57:25;;;;;;;7.37;4.03;;;3.60;98.90;;;;;;5062836;28;20219;-40
2022/04/01 09:59:53;;;;;;;4.80;3.73;;;3.50;98.90;;;;;;5062167;28;20741;-40
2022/04/01 10:02:23;;;;;;;5.80;4.13;;;3.50;99.00;;;;;;5052360;28;20251;-40
2022/04/01 10:04:50;;;;;;;6.20;3.97;;;3.50;98.60;;;;;;5070527;28;20257;-40
2022/04/01 10:07:22;;;;;;;4.73;3.80;;;3.50;98.80;;;;;;5057453;28;20208;-40
2022/04/01 10:09:54;;;;;;;5.73;3.77;;;3.50;98.60;;;;;;5059235;28;20200;-40
2022/04/01 10:12:40;;;;;;;6.73;3.93;;;3.60;98.50;;;;;;5060778;28;20200;-40
2022/04/01 10:15:10;;;;;;;5.20;4.07;;;3.60;98.50;;;;;;5066799;28;20269;-40
2022/04/01 10:17:55;;;;;;;4.97;3.90;;;3.60;98.70;;;;;;5068935;28;20224;-40
2022/04/01 10:20:36;;;;;;;4.97;3.83;;;3.60;98.50;;;;;;5053871;28;20701;-40
2022/04/01 10:23:11;;;;;;;4.37;3.67;;;3.70;98.50;;;;;;5057681;28;20254;-40
2022/04/01 10:26:01;;;;;;;4.50;3.43;;;3.70;98.30;;;;;;5065186;28;20282;-40
2022/04/01 10:28:29;;;;;;;8.37;4.10;;;3.70;98.50;;;;;;5059760;28;20210;-40
2022/04/01 10:31:02;;;;;;;4.23;3.47;;;3.70;98.80;;;;;;5067800;28;20646;-40
2022/04/01 10:33:36;;;;;;;7.13;3.87;;;3.70;98.40;;;;;;5064294;28;20223;-39
2022/04/01 10:36:22;;;;;;;4.23;3.53;;;3.70;98.50;;;;;;5041235;28;20743;-40
2022/04/01 10:39:08;;;;;;;9.50;3.63;;;3.80;98.60;;;;;;5048745;28;20574;-39
2022/04/01 10:41:38;;;;;;;6.67;3.60;;;3.80;98.50;;;;;;5057890;28;20654;-39
2022/04/01 10:44:06;;;;;;;4.00;3.63;;;3.80;98.40;;;;;;5053017;28;20236;-40
2022/04/01 10:46:37;;;;;;;7.10;3.60;;;3.70;98.40;;;;;;5064586;28;20273;-39
2022/04/01 10:52:15;;;;;;;4.33;3.50;;;3.70;98.30;;;;;;5059003;28;20749;-34
2022/04/01 10:54:46;;;;;;;6.93;3.23;;;3.70;98.20;;;;;;5048525;28;20240;-33
2022/04/01 10:57:44;;;;;;;4.13;3.10;;;3.70;98.50;;;;;;5060798;28;20235;-33
2022/04/01 11:00:15;;;;;;;8.23;3.17;;;3.70;98.60;;;;;;5048759;28;20291;-33
2022/04/01 11:02:47;;;;;;;6.97;3.10;;;3.60;98.60;;;;;;5056894;28;20216;-33
2022/04/01 11:05:47;;;;;;;6.53;3.20;;;3.60;98.40;;;;;;5082601;28;20199;-33
2022/04/01 11:08:20;;;;;;;6.80;3.10;;;3.70;98.60;;;;;;5046221;28;20215;-33
2022/04/01 11:11:09;;;;;;;5.10;3.27;;;3.70;98.40;;;;;;5054891;28;20712;-33
2022/04/01 11:13:38;;;;;;;4.80;3.20;;;3.70;98.40;;;;;;5065628;28;20196;-33
2022/04/01 11:16:13;;;;;;;4.77;2.73;;;3.80;98.20;;;;;;5049101;28;20751;-36
2022/04/01 11:19:13;;;;;;;5.17;2.83;;;3.80;98.10;;;;;;5048098;28;20585;-34
2022/04/01 11:21:44;;;;;;;4.57;3.07;;;3.90;98.10;;;;;;5043347;28;20202;-33
2022/04/01 11:24:30;;;;;;;5.07;3.00;;;3.90;97.90;;;;;;5050443;28;20595;-33
2022/04/01 11:27:08;;;;;;;5.33;2.80;;;3.90;97.90;;;;;;5062524;28;20634;-34
2022/04/01 11:29:35;;;;;;;4.60;3.07;;;3.90;98.00;;;;;;5047037;28;20200;-33
2022/04/01 11:32:09;;;;;;;9.80;3.50;;;3.90;97.90;;;;;;5060114;28;20768;-34
2022/04/01 11:34:55;;;;;;;7.70;3.53;;;4.00;98.10;;;;;;5061083;28;20218;-33
2022/04/01 11:37:25;;;;;;;8.93;3.27;;;4.00;97.90;;;;;;5049474;28;20605;-33
2022/04/01 11:40:05;;;;;;;4.07;3.03;;;4.00;98.10;;;;;;5048341;28;20198;-33
2022/04/01 11:42:32;;;;;;;4.80;3.03;;;4.10;98.00;;;;;;5065222;28;20720;-33
2022/04/01 11:44:59;;;;;;;6.73;4.07;;;4.10;97.90;;;;;;5052070;28;20196;-33
2022/04/01 11:47:37;;;;;;;3.63;2.70;;;4.20;98.00;;;;;;5059280;28;20318;-33
2022/04/01 11:50:13;;;;;;;5.30;3.33;;;4.20;97.90;;;;;;5054383;28;20192;-33
2022/04/01 11:52:46;;;;;;;8.90;3.40;;;4.20;97.90;;;;;;5052311;28;20200;-33
2022/04/01 11:55:18;;;;;;;6.87;3.10;;;4.20;97.80;;;;;;5058762;28;20355;-33
2022/04/01 11:57:51;;;;;;;5.13;3.23;;;4.20;97.80;;;;;;5056941;28;20589;-33
2022/04/01 12:00:33;;;;;;;8.23;3.50;;;4.20;97.70;;;;;;5065342;28;20207;-33
2022/04/01 12:03:02;;;;;;;7.13;2.87;;;4.20;97.80;;;;;;5067211;28;20658;-33
2022/04/01 12:05:33;;;;;;;5.83;3.47;;;4.20;97.80;;;;;;5061602;28;20199;-34
2022/04/01 12:10:53;;;;;;;4.50;3.10;;;4.20;97.80;;;;;;5060944;28;20211;-33
2022/04/01 12:13:22;;;;;;;3.93;2.97;;;4.20;97.70;;;;;;5065955;28;20208;-33
2022/04/01 12:15:52;;;;;;;5.37;3.17;;;4.20;97.70;;;;;;5054476;28;20752;-33
2022/04/01 12:18:22;;;;;;;5.57;3.03;;;4.20;97.60;;;;;;5052899;28;20255;-34
2022/04/01 12:20:55;;;;;;;5.13;2.60;;;4.20;97.60;;;;;;5060856;28;20417;-33
2022/04/01 12:23:30;;;;;;;5.77;3.20;;;4.20;97.60;;;;;;5065521;28;20199;-34
2022/04/01 12:26:03;;;;;;;5.50;3.60;;;4.20;97.50;;;;;;5057564;28;20677;-34
2022/04/01 12:28:39;;;;;;;9.43;3.60;;;4.30;97.50;;;;;;5051288;28;20284;-33
2022/04/01 12:31:19;;;;;;;5.87;3.13;;;4.30;97.60;;;;;;5054003;28;20735;-33
2022/04/01 12:33:55;;;;;;;4.80;3.00;;;4.40;97.70;;;;;;5058346;28;20204;-33
2022/04/01 12:36:31;;;;;;;7.20;3.20;;;4.40;97.70;;;;;;5051614;28;20202;-33
2022/04/01 12:39:10;;;;;;;5.70;3.40;;;4.40;97.80;;;;;;5061694;28;20621;-33
2022/04/01 12:41:58;;;;;;;5.60;3.50;;;4.30;97.80;;;;;;5049696;28;20565;-33
2022/04/01 12:44:32;;;;;;;6.80;3.20;;;4.40;97.70;;;;;;5055075;28;20240;-33
2022/04/01 12:47:03;;;;;;;7.60;2.90;;;4.40;97.60;;;;;;5059404;28;20295;-33
2022/04/01 12:49:33;;;;;;;4.53;3.10;;;4.40;97.50;;;;;;5060615;28;20239;-33
2022/04/01 12:52:06;;;;;;;5.23;3.03;;;4.50;97.50;;;;;;5056432;28;20207;-33
2022/04/01 12:54:43;;;;;;;4.23;3.00;;;4.50;97.50;;;;;;5063653;28;20709;-33
2022/04/01 12:57:19;;;;;;;7.07;3.67;;;4.50;97.40;;;;;;5058909;28;20224;-33
2022/04/01 12:59:51;;;;;;;5.33;3.00;;;4.50;97.40;;;;;;5061548;28;20202;-33
2022/04/01 13:02:21;;;;;;;7.27;3.00;;;4.40;97.60;;;;;;5063649;28;20208;-34
2022/04/01 13:04:56;;;;;;;4.40;3.00;;;4.40;97.50;;;;;;5068618;28;20583;-33
2022/04/01 13:07:35;;;;;;;5.93;3.10;;;4.40;97.40;;;;;;5081365;28;20203;-33
2022/04/01 13:10:09;;;;;;;5.50;3.40;;;4.30;97.40;;;;;;5060888;28;20257;-33
2022/04/01 13:12:51;;;;;;;6.20;3.30;;;4.30;97.40;;;;;;5055540;28;20721;-34
2022/04/01 13:15:20;;;;;;;6.57;3.37;;;4.40;97.30;;;;;;5055839;28;20203;-33
2022/04/01 13:17:52;;;;;;;5.87;3.20;;;4.30;97.50;;;;;;5061284;28;20763;-34
2022/04/01 13:20:28;;;;;;;5.73;3.33;;;4.30;97.40;;;;;;5057931;28;20225;-33
2022/04/01 13:23:00;;;;;;;5.33;3.40;;;4.40;97.40;;;;;;5057512;28;20264;-34
2022/04/01 13:25:29;;;;;;;6.00;3.30;;;4.30;97.40;;;;;;5054296;28;20196;-34
2022/04/01 13:27:57;;;;;;;4.07;3.10;;;4.30;97.40;;;;;;5060324;28;20219;-33
2022/04/01 13:30:25;;;;;;;4.13;2.97;;;4.40;97.40;;;;;;5064076;28;20290;-33
2022/04/01 13:32:56;;;;;;;4.90;3.60;;;4.40;97.30;;;;;;5069267;28;20208;-34
2022/04/01 13:35:24;;;;;;;5.17;3.53;;;4.40;97.30;;;;;;5049267;28;20201;-34